Weather observations for the past three days for
Kirksville, Kirksville Regional Airport
| Date | Time (cdt) | Wind (mph) | Vis. (mi.) | Weather | Sky Cond. | Temperature (ºF) | Relative Humidity | Wind Chill (°F) | Heat Index (°F) | Pressure | Precipitation (in) | ||||||
|---|---|---|---|---|---|---|---|---|---|---|---|---|---|---|---|---|---|
| Air | Dwpt | 6 hour | altimeter (in) | sea level (mb) | 1 hr | 3 hr | 6 hr | ||||||||||
| Max. | Min. | ||||||||||||||||
| 03 | 23:55 | S 7 | 5.00 | Thunderstorm Rain Fog/Mist | FEW050 SCT070 OVC090 | 54 | 51.1 | 90% | 29.77 | 1008.2 | 0.03 | ||||||
| 03 | 22:55 | S 5 | 10.00 | Partly Cloudy | SCT110 | 55.9 | 51.1 | 84% | 29.78 | 1008.6 | |||||||
| 03 | 21:55 | Calm | 10.00 | Fair | CLR | 57.9 | 45 | 62% | 29.79 | 1008.9 | |||||||
| 03 | 20:55 | Calm | 10.00 | NULL | NULL | 57 | 46.9 | 69% | 29.8 | 1009.2 | |||||||
| 03 | 19:55 | NW 3 | 10.00 | Fair | CLR | 66.9 | 43 | 42% | 29.79 | 1008.9 | |||||||
| 03 | 18:55 | W 6 | 10.00 | Fair | CLR | 69.1 | 45 | 72 | 66.9 | 42% | 29.79 | 1009.0 | |||||
| 03 | 17:55 | W 8 | 10.00 | Fair | CLR | 71.1 | 45 | 39% | 29.8 | 1009.1 | |||||||
| 03 | 16:55 | W 12 | 10.00 | Fair | CLR | 71.1 | 44.1 | 38% | 29.8 | 1009.5 | |||||||
| 03 | 15:55 | W 14 G 21 | 10.00 | Fair | CLR | 71.1 | 44.1 | 38% | 29.81 | 1009.8 | |||||||
| 03 | 14:55 | W 15 G 22 | 10.00 | Fair | CLR | 71.1 | 45 | 39% | 29.83 | 1010.4 | |||||||
| 03 | 13:55 | SW 16 G 28 | 10.00 | Fair | CLR | 69.1 | 44.1 | 41% | 29.84 | 1010.8 | |||||||
| 03 | 12:55 | W 13 G 25 | 10.00 | Fair | CLR | 66.9 | 43 | 68 | 46.9 | 42% | 29.87 | 1011.7 | |||||
| 03 | 11:55 | SW 14 G 26 | 10.00 | Fair | CLR | 66 | 42.1 | 42% | 29.88 | 1012.2 | |||||||
| 03 | 10:55 | SW 16 G 30 | 10.00 | Fair | CLR | 62.1 | 39.9 | 44% | 29.88 | 1012.4 | |||||||
| 03 | 09:55 | SW 15 G 26 | 10.00 | Fair | CLR | 57.9 | 37.9 | 48% | 29.92 | 1013.5 | |||||||
| 03 | 08:55 | SW 18 G 29 | 10.00 | Fair | CLR | 54 | 37.9 | 55% | 29.93 | 1013.9 | |||||||
| 03 | 07:55 | SW 17 G 25 | 10.00 | Fair | CLR | 52 | 37 | 57% | 29.94 | 1014.2 | |||||||
| 03 | 06:55 | S 9 | 10.00 | Fair | CLR | 46.9 | 37 | 48 | 43 | 69% | 43 | 29.96 | 1015.1 | ||||
| 03 | 05:55 | S 9 | 10.00 | A Few Clouds | FEW095 | 46 | 35.1 | 66% | 42 | 29.96 | 1015.0 | ||||||
| 03 | 04:55 | S 6 | 10.00 | Fair | CLR | 43 | 35.1 | 74% | 40 | 29.97 | 1015.5 | ||||||
| 03 | 03:55 | S 9 | 10.00 | Fair | CLR | 44.1 | 33.1 | 65% | 40 | 29.99 | 1015.8 | ||||||
| 03 | 02:55 | S 8 | 10.00 | Fair | CLR | 44.1 | 33.1 | 65% | 40 | 30 | 1016.4 | ||||||
| 03 | 01:55 | S 7 | 10.00 | Fair | CLR | 44.1 | 33.1 | 65% | 41 | 30.02 | 1017.2 | ||||||
| 03 | 00:55 | S 7 | 10.00 | Fair | CLR | 44.1 | 33.1 | 59 | 43 | 65% | 41 | 30.04 | 1017.6 | ||||
| 02 | 23:55 | S 5 | 10.00 | Fair | CLR | 44.1 | 33.1 | 65% | 42 | 30.05 | 1018.0 | ||||||
| 02 | 22:55 | S 5 | 10.00 | Fair | CLR | 43 | 36 | 76% | 41 | 30.07 | 1018.8 | ||||||
| 02 | 21:55 | S 3 | 10.00 | Fair | CLR | 44.1 | 39 | 83% | 30.07 | 1019.0 | |||||||
| 02 | 20:55 | Calm | 10.00 | Fair | CLR | 48 | 37.9 | 68% | 30.07 | 1018.7 | |||||||
| 02 | 19:55 | W 3 | 10.00 | Fair | CLR | 55 | 30 | 38% | 30.06 | 1018.4 | |||||||
| 02 | 18:55 | W 5 | 10.00 | Fair | CLR | 59 | 28.9 | 62.1 | 55 | 32% | 30.06 | 1018.7 | |||||
| 02 | 17:55 | NW 9 | 10.00 | Fair | CLR | 60.1 | 28.9 | 31% | 30.07 | 1018.9 | |||||||
| 02 | 16:55 | NW 7 | 10.00 | Fair | CLR | 61 | 30 | 31% | 30.08 | 1019.2 | |||||||
| 02 | 15:55 | Calm | 10.00 | Partly Cloudy | SCT075 | 61 | 28.9 | 30% | 30.09 | 1019.6 | |||||||
| 02 | 14:55 | SW 8 | 10.00 | Mostly Cloudy | BKN075 | 60.1 | 28.9 | 31% | 30.11 | 1020.1 | |||||||
| 02 | 13:55 | N 7 | 10.00 | A Few Clouds | FEW075 | 59 | 30 | 33% | 30.13 | 1020.6 | |||||||
| 02 | 12:55 | N 10 G 16 | 10.00 | Partly Cloudy | SCT070 | 59 | 30.9 | 59 | 36 | 35% | 30.14 | 1021.1 | |||||
| 02 | 11:55 | N 6 | 10.00 | Partly Cloudy | SCT065 | 57 | 30 | 36% | 30.15 | 1021.6 | |||||||
| 02 | 10:55 | N 6 | 10.00 | Partly Cloudy | SCT065 | 53.1 | 26.1 | 35% | 30.15 | 1021.8 | |||||||
| 02 | 09:55 | NE 7 | 10.00 | Fair | CLR | 53.1 | 35.1 | 51% | 30.15 | 1021.7 | |||||||
| 02 | 08:55 | N 6 | 10.00 | Fair | CLR | 48.9 | 36 | 61% | 47 | 30.15 | 1021.7 | ||||||
| 02 | 07:55 | N 7 | 10.00 | Mostly Cloudy | BKN070 | 46 | 37 | 71% | 43 | 30.14 | 1021.2 | ||||||
| 02 | 06:55 | NW 3 | 10.00 | Fair | CLR | 36 | 35.1 | 44.1 | 35.1 | 97% | 30.12 | 1020.6 | |||||
| 02 | 05:55 | NW 5 | 10.00 | Fair | CLR | 39 | 34 | 82% | 36 | 30.11 | 1020.3 | ||||||
| 02 | 04:55 | NW 5 | 10.00 | Fair | CLR | 37 | 36 | 96% | 34 | 30.1 | 1020.0 | ||||||
| 02 | 03:55 | NW 3 | 10.00 | A Few Clouds | FEW090 | 37 | 36 | 96% | 30.1 | 1019.7 | |||||||
| 02 | 02:55 | N 3 | 10.00 | Overcast | OVC090 | 43 | 37 | 80% | 30.09 | 1019.3 | |||||||
| 02 | 01:55 | N 5 | 10.00 | Mostly Cloudy | BKN090 | 43 | 37.9 | 82% | 41 | 30.09 | 1019.3 | ||||||
| 02 | 00:55 | NE 6 | 10.00 | Overcast | OVC095 | 44.1 | 37.9 | 55.9 | 42.1 | 79% | 41 | 30.09 | 1019.5 | ||||
| 01 | 23:55 | NE 5 | 10.00 | Mostly Cloudy | BKN095 | 43 | 37 | 80% | 41 | 30.1 | 1019.6 | ||||||
| 01 | 22:55 | NE 6 | 10.00 | Fair | CLR | 43 | 36 | 76% | 40 | 30.09 | 1019.6 | ||||||
| 01 | 21:55 | N 7 | 10.00 | A Few Clouds | FEW095 | 44.1 | 36 | 73% | 41 | 30.08 | 1019.1 | ||||||
| 01 | 20:55 | NE 5 | 10.00 | Fair | CLR | 46.9 | 37.9 | 71% | 45 | 30.05 | 1018.2 | ||||||
| 01 | 19:55 | N 9 | 10.00 | Fair | CLR | 52 | 35.1 | 53% | 30.02 | 1017.3 | |||||||
| 01 | 18:55 | N 12 | 10.00 | Fair | CLR | 55 | 37 | 63 | 55 | 51% | 30 | 1016.6 | |||||
| 01 | 17:55 | NW 10 | 10.00 | Partly Cloudy | SCT100 | 59 | 28 | 31% | 29.99 | 1016.2 | |||||||
| 01 | 16:55 | W 9 G 21 | 10.00 | A Few Clouds | FEW090 | 61 | 27 | 27% | 29.99 | 1016.0 | |||||||
| 01 | 15:55 | W 9 G 18 | 10.00 | A Few Clouds | FEW070 FEW100 FEW110 | 61 | 30.9 | 32% | 30 | 1016.5 | |||||||
| 01 | 14:55 | W 16 G 24 | 6.00 | Mostly Cloudy with Haze | SCT070 BKN090 BKN110 | 59 | 32 | 36% | 30.02 | 1017.3 | |||||||
| 01 | 13:55 | SW 15 G 24 | 10.00 | Mostly Cloudy | FEW070 BKN095 | 60.1 | 32 | 35% | 30.03 | 1017.4 | |||||||
| 01 | 12:55 | W 14 G 21 | 10.00 | Partly Cloudy | SCT075 SCT090 | 60.1 | 33.1 | 61 | 36 | 36% | 30.04 | 1017.6 | |||||
| 01 | 11:55 | W 12 G 22 | 10.00 | A Few Clouds | FEW085 | 59 | 30.9 | 35% | 30.05 | 1018.1 | |||||||
| 01 | 10:55 | NW 6 | 10.00 | A Few Clouds | FEW085 | 57 | 30 | 36% | 30.06 | 1018.2 | |||||||
| 01 | 09:55 | Vrbl 6 | 10.00 | Fair | CLR | 54 | 32 | 43% | 30.06 | 1018.5 | |||||||
| 01 | 08:55 | W 7 | 10.00 | Fair | CLR | 50 | 33.1 | 52% | 48 | 30.07 | 1018.7 | ||||||
| 01 | 07:55 | W 5 | 10.00 | Fair | CLR | 44.1 | 34 | 68% | 42 | 30.07 | 1018.9 | ||||||
| 01 | 06:55 | W 6 | 10.00 | Fair | CLR | 36 | 30.9 | 39.9 | 32 | 82% | 32 | 30.07 | 1018.8 | ||||
| 01 | 05:55 | W 5 | 10.00 | Fair | CLR | 33.1 | 30.9 | 92% | 29 | 30.06 | 1018.5 | ||||||
| 01 | 04:55 | W 3 | 10.00 | Fair | CLR | 33.1 | 30.9 | 92% | 30.06 | 1018.8 | |||||||
| 01 | 03:55 | W 5 | 10.00 | Fair | CLR | 34 | 32 | 92% | 30 | 30.07 | 1018.8 | ||||||
| 01 | 02:55 | W 5 | 10.00 | Fair | CLR | 36 | 33.1 | 89% | 33 | 30.07 | 1018.8 | ||||||
| 01 | 01:55 | NW 5 | 10.00 | Fair | CLR | 37.9 | 34 | 86% | 35 | 30.08 | 1019.1 | ||||||
| 01 | 00:55 | NW 5 | 10.00 | Fair | CLR | 39.9 | 34 | 55 | 39.9 | 79% | 37 | 30.08 | 1019.2 | ||||
| Date | Time (cdt) | Wind (mph) | Vis. (mi.) | Weather | Sky Cond. | Air | Dwpt | Max. | Min. | Relative Humidity | Wind Chill (°F) | Heat Index (°F) | altimeter (in) | sea level (mb) | 1 hr | 3 hr | 6 hr |
| 6 hour | |||||||||||||||||
| Temperature (ºF) | Pressure | Precipitation (in) | |||||||||||||||